sensor_id;sensor_type;location;lat;lon;timestamp;pressure;altitude;pressure_sealevel;temperature;humidity
35892;BME280;21993;42.672;23.296;2023-04-07T00:02:11;94429.31;;;5.51;46.45
35892;BME280;21993;42.672;23.296;2023-04-07T00:04:36;94430.38;;;5.49;46.33
35892;BME280;21993;42.672;23.296;2023-04-07T00:07:01;94434.81;;;5.71;45.33
35892;BME280;21993;42.672;23.296;2023-04-07T00:09:27;94436.84;;;5.67;45.97
35892;BME280;21993;42.672;23.296;2023-04-07T00:11:52;94427.81;;;5.60;45.43
35892;BME280;21993;42.672;23.296;2023-04-07T00:14:18;94429.19;;;5.53;46.25
35892;BME280;21993;42.672;23.296;2023-04-07T00:16:43;94422.56;;;5.49;46.51
35892;BME280;21993;42.672;23.296;2023-04-07T00:19:09;94423.81;;;5.67;46.30
35892;BME280;21993;42.672;23.296;2023-04-07T00:21:34;94421.66;;;5.61;46.31
35892;BME280;21993;42.672;23.296;2023-04-07T00:24:00;94425.56;;;5.55;46.30
35892;BME280;21993;42.672;23.296;2023-04-07T00:26:25;94426.16;;;5.59;46.32
35892;BME280;21993;42.672;23.296;2023-04-07T00:28:57;94425.72;;;5.65;46.31
35892;BME280;21993;42.672;23.296;2023-04-07T00:31:22;94420.25;;;5.68;46.24
35892;BME280;21993;42.672;23.296;2023-04-07T00:33:48;94417.78;;;5.67;46.10
35892;BME280;21993;42.672;23.296;2023-04-07T00:36:14;94424.75;;;5.66;46.36
35892;BME280;21993;42.672;23.296;2023-04-07T00:38:39;94413.41;;;5.67;46.11
35892;BME280;21993;42.672;23.296;2023-04-07T00:41:05;94418.38;;;5.70;46.10
35892;BME280;21993;42.672;23.296;2023-04-07T00:43:30;94428.19;;;5.67;46.12
35892;BME280;21993;42.672;23.296;2023-04-07T00:45:56;94421.78;;;5.59;46.38
35892;BME280;21993;42.672;23.296;2023-04-07T00:48:21;94425.44;;;5.57;46.11
35892;BME280;21993;42.672;23.296;2023-04-07T00:50:47;94422.16;;;5.66;46.30
35892;BME280;21993;42.672;23.296;2023-04-07T00:53:12;94425.88;;;5.51;46.57
35892;BME280;21993;42.672;23.296;2023-04-07T00:55:38;94430.38;;;5.49;46.52
35892;BME280;21993;42.672;23.296;2023-04-07T00:58:03;94419.13;;;5.48;46.04
35892;BME280;21993;42.672;23.296;2023-04-07T01:00:39;94417.75;;;5.55;45.52
35892;BME280;21993;42.672;23.296;2023-04-07T01:03:13;94416.28;;;5.40;46.04
35892;BME280;21993;42.672;23.296;2023-04-07T01:16:00;94407.94;;;5.35;46.88
35892;BME280;21993;42.672;23.296;2023-04-07T01:18:32;94412.59;;;5.43;46.65
35892;BME280;21993;42.672;23.296;2023-04-07T01:21:02;94413.28;;;5.33;46.61
35892;BME280;21993;42.672;23.296;2023-04-07T01:23:44;94409.00;;;5.32;47.21
35892;BME280;21993;42.672;23.296;2023-04-07T01:26:23;94401.50;;;5.52;46.59
35892;BME280;21993;42.672;23.296;2023-04-07T01:31:25;94401.91;;;5.58;45.90
35892;BME280;21993;42.672;23.296;2023-04-07T01:33:53;94404.75;;;5.55;45.08
35892;BME280;21993;42.672;23.296;2023-04-07T01:36:20;94408.56;;;5.39;46.02
35892;BME280;21993;42.672;23.296;2023-04-07T01:38:47;94405.03;;;5.40;45.61
35892;BME280;21993;42.672;23.296;2023-04-07T01:41:14;94395.72;;;5.48;45.68
35892;BME280;21993;42.672;23.296;2023-04-07T01:43:41;94389.69;;;5.48;45.44
35892;BME280;21993;42.672;23.296;2023-04-07T01:46:08;94393.25;;;5.58;45.27
35892;BME280;21993;42.672;23.296;2023-04-07T01:48:34;94405.16;;;5.73;45.64
35892;BME280;21993;42.672;23.296;2023-04-07T01:51:03;94397.22;;;5.75;44.92
35892;BME280;21993;42.672;23.296;2023-04-07T01:53:29;94392.34;;;5.70;44.83
35892;BME280;21993;42.672;23.296;2023-04-07T01:55:54;94388.56;;;5.74;45.61
35892;BME280;21993;42.672;23.296;2023-04-07T01:58:20;94383.09;;;5.66;45.86
35892;BME280;21993;42.672;23.296;2023-04-07T02:00:45;94391.34;;;5.49;45.52
35892;BME280;21993;42.672;23.296;2023-04-07T02:03:14;94374.66;;;5.51;44.98
35892;BME280;21993;42.672;23.296;2023-04-07T02:05:45;94378.31;;;5.49;45.27
35892;BME280;21993;42.672;23.296;2023-04-07T02:08:15;94375.47;;;5.52;44.66
35892;BME280;21993;42.672;23.296;2023-04-07T02:10:42;94388.84;;;5.47;44.38
35892;BME280;21993;42.672;23.296;2023-04-07T02:13:14;94386.28;;;5.58;44.31
35892;BME280;21993;42.672;23.296;2023-04-07T02:15:40;94380.81;;;5.61;44.76
35892;BME280;21993;42.672;23.296;2023-04-07T02:18:07;94380.34;;;5.56;44.22
35892;BME280;21993;42.672;23.296;2023-04-07T02:20:35;94379.53;;;5.56;44.93
35892;BME280;21993;42.672;23.296;2023-04-07T02:23:01;94383.91;;;5.55;44.58
35892;BME280;21993;42.672;23.296;2023-04-07T02:25:31;94378.28;;;5.73;44.48
35892;BME280;21993;42.672;23.296;2023-04-07T02:27:57;94382.53;;;5.74;43.48
35892;BME280;21993;42.672;23.296;2023-04-07T02:30:23;94384.19;;;5.75;43.59
35892;BME280;21993;42.672;23.296;2023-04-07T02:32:49;94390.47;;;5.72;44.01
35892;BME280;21993;42.672;23.296;2023-04-07T02:35:15;94384.75;;;5.67;44.25
35892;BME280;21993;42.672;23.296;2023-04-07T02:37:42;94388.19;;;5.68;44.42
35892;BME280;21993;42.672;23.296;2023-04-07T02:40:07;94386.78;;;5.75;43.61
35892;BME280;21993;42.672;23.296;2023-04-07T02:42:33;94403.69;;;5.69;43.76
35892;BME280;21993;42.672;23.296;2023-04-07T02:44:59;94389.88;;;5.80;44.04
35892;BME280;21993;42.672;23.296;2023-04-07T02:47:25;94392.63;;;5.89;43.71
35892;BME280;21993;42.672;23.296;2023-04-07T02:49:50;94391.91;;;5.87;43.57
35892;BME280;21993;42.672;23.296;2023-04-07T02:52:16;94390.28;;;5.62;44.01
35892;BME280;21993;42.672;23.296;2023-04-07T02:54:42;94392.91;;;5.62;43.88
35892;BME280;21993;42.672;23.296;2023-04-07T02:57:07;94392.13;;;5.73;43.76
35892;BME280;21993;42.672;23.296;2023-04-07T02:59:33;94397.09;;;5.76;43.61
35892;BME280;21993;42.672;23.296;2023-04-07T03:01:58;94400.53;;;5.88;42.99
35892;BME280;21993;42.672;23.296;2023-04-07T03:04:24;94402.03;;;5.92;44.29
35892;BME280;21993;42.672;23.296;2023-04-07T03:06:49;94400.84;;;5.96;44.03
35892;BME280;21993;42.672;23.296;2023-04-07T03:09:15;94404.50;;;5.93;43.52
35892;BME280;21993;42.672;23.296;2023-04-07T03:11:40;94397.50;;;5.94;43.52
35892;BME280;21993;42.672;23.296;2023-04-07T03:14:06;94401.06;;;5.93;43.71
35892;BME280;21993;42.672;23.296;2023-04-07T03:16:32;94397.03;;;5.89;43.87
35892;BME280;21993;42.672;23.296;2023-04-07T03:18:57;94401.97;;;5.81;43.64
35892;BME280;21993;42.672;23.296;2023-04-07T03:21:22;94396.41;;;5.85;44.04
35892;BME280;21993;42.672;23.296;2023-04-07T03:23:48;94399.19;;;5.71;43.82
35892;BME280;21993;42.672;23.296;2023-04-07T03:26:13;94405.09;;;5.62;44.12
35892;BME280;21993;42.672;23.296;2023-04-07T03:28:39;94394.34;;;5.67;44.48
35892;BME280;21993;42.672;23.296;2023-04-07T03:31:04;94394.22;;;5.57;44.42
35892;BME280;21993;42.672;23.296;2023-04-07T03:33:30;94397.34;;;5.73;44.10
35892;BME280;21993;42.672;23.296;2023-04-07T03:35:55;94390.69;;;5.69;43.85
35892;BME280;21993;42.672;23.296;2023-04-07T03:38:21;94385.16;;;5.74;44.30
35892;BME280;21993;42.672;23.296;2023-04-07T03:40:47;94386.53;;;5.67;44.11
35892;BME280;21993;42.672;23.296;2023-04-07T03:43:12;94397.81;;;5.78;43.93
35892;BME280;21993;42.672;23.296;2023-04-07T03:45:40;94388.72;;;5.84;43.96
35892;BME280;21993;42.672;23.296;2023-04-07T03:48:06;94395.81;;;5.82;43.99
35892;BME280;21993;42.672;23.296;2023-04-07T03:50:39;94402.31;;;5.87;44.17
35892;BME280;21993;42.672;23.296;2023-04-07T03:53:05;94391.44;;;5.82;44.07
35892;BME280;21993;42.672;23.296;2023-04-07T03:55:32;94396.25;;;5.76;44.57
35892;BME280;21993;42.672;23.296;2023-04-07T03:57:58;94399.25;;;5.82;44.58
35892;BME280;21993;42.672;23.296;2023-04-07T04:00:24;94402.53;;;5.73;44.46
35892;BME280;21993;42.672;23.296;2023-04-07T04:02:51;94412.59;;;5.78;43.98
35892;BME280;21993;42.672;23.296;2023-04-07T04:05:17;94402.97;;;5.91;44.02
35892;BME280;21993;42.672;23.296;2023-04-07T04:07:42;94406.81;;;5.85;44.64
35892;BME280;21993;42.672;23.296;2023-04-07T04:10:07;94405.16;;;5.84;44.16
35892;BME280;21993;42.672;23.296;2023-04-07T04:12:33;94403.13;;;5.77;44.47
35892;BME280;21993;42.672;23.296;2023-04-07T04:14:59;94405.75;;;5.88;44.49
35892;BME280;21993;42.672;23.296;2023-04-07T04:17:24;94407.78;;;5.84;44.74
35892;BME280;21993;42.672;23.296;2023-04-07T04:19:51;94406.81;;;5.85;44.11
35892;BME280;21993;42.672;23.296;2023-04-07T04:22:16;94404.63;;;5.92;44.22
35892;BME280;21993;42.672;23.296;2023-04-07T04:24:42;94414.38;;;5.77;44.51
35892;BME280;21993;42.672;23.296;2023-04-07T04:27:07;94414.38;;;5.77;44.31
35892;BME280;21993;42.672;23.296;2023-04-07T04:29:33;94416.28;;;5.86;44.12
35892;BME280;21993;42.672;23.296;2023-04-07T04:31:58;94417.00;;;5.88;44.12
35892;BME280;21993;42.672;23.296;2023-04-07T04:34:24;94417.59;;;5.81;43.52
35892;BME280;21993;42.672;23.296;2023-04-07T04:36:49;94419.25;;;5.82;44.33
35892;BME280;21993;42.672;23.296;2023-04-07T04:39:15;94422.31;;;5.76;44.18
35892;BME280;21993;42.672;23.296;2023-04-07T04:41:40;94422.06;;;5.79;44.13
35892;BME280;21993;42.672;23.296;2023-04-07T04:44:06;94426.94;;;5.83;44.25
35892;BME280;21993;42.672;23.296;2023-04-07T04:46:32;94436.19;;;5.87;44.07
35892;BME280;21993;42.672;23.296;2023-04-07T04:48:57;94426.16;;;5.94;43.62
35892;BME280;21993;42.672;23.296;2023-04-07T04:51:23;94423.56;;;5.94;43.89
35892;BME280;21993;42.672;23.296;2023-04-07T04:53:49;94428.22;;;6.02;43.38
35892;BME280;21993;42.672;23.296;2023-04-07T04:56:14;94421.34;;;6.12;43.43
35892;BME280;21993;42.672;23.296;2023-04-07T04:58:40;94433.34;;;6.14;43.42
35892;BME280;21993;42.672;23.296;2023-04-07T05:01:13;94434.50;;;6.21;42.81
35892;BME280;21993;42.672;23.296;2023-04-07T05:03:39;94435.47;;;6.20;43.67
35892;BME280;21993;42.672;23.296;2023-04-07T05:06:05;94437.16;;;6.33;43.18
35892;BME280;21993;42.672;23.296;2023-04-07T05:08:30;94433.59;;;6.23;42.86
35892;BME280;21993;42.672;23.296;2023-04-07T05:10:56;94450.97;;;6.22;42.51
35892;BME280;21993;42.672;23.296;2023-04-07T05:13:22;94449.47;;;6.31;42.84
35892;BME280;21993;42.672;23.296;2023-04-07T05:15:47;94441.28;;;6.35;42.62
35892;BME280;21993;42.672;23.296;2023-04-07T05:18:12;94454.06;;;6.27;42.89
35892;BME280;21993;42.672;23.296;2023-04-07T05:20:38;94456.22;;;6.33;42.80
35892;BME280;21993;42.672;23.296;2023-04-07T05:23:04;94454.00;;;6.51;44.52
35892;BME280;21993;42.672;23.296;2023-04-07T05:25:29;94464.06;;;6.67;47.11
35892;BME280;21993;42.672;23.296;2023-04-07T05:27:57;94462.28;;;6.78;48.36
35892;BME280;21993;42.672;23.296;2023-04-07T05:30:23;94457.44;;;6.85;48.75
35892;BME280;21993;42.672;23.296;2023-04-07T05:32:48;94450.81;;;6.81;48.56
35892;BME280;21993;42.672;23.296;2023-04-07T05:35:14;94466.22;;;6.84;48.13
35892;BME280;21993;42.672;23.296;2023-04-07T05:37:39;94465.97;;;6.76;49.18
35892;BME280;21993;42.672;23.296;2023-04-07T05:40:05;94453.63;;;6.78;48.65
35892;BME280;21993;42.672;23.296;2023-04-07T05:42:31;94459.09;;;6.86;48.92
35892;BME280;21993;42.672;23.296;2023-04-07T05:44:56;94465.34;;;6.72;48.74
35892;BME280;21993;42.672;23.296;2023-04-07T05:47:22;94463.84;;;6.59;48.43
35892;BME280;21993;42.672;23.296;2023-04-07T05:49:47;94462.75;;;6.50;47.64
35892;BME280;21993;42.672;23.296;2023-04-07T05:52:13;94467.50;;;6.56;44.97
35892;BME280;21993;42.672;23.296;2023-04-07T05:54:39;94463.84;;;6.59;43.77
35892;BME280;21993;42.672;23.296;2023-04-07T05:57:05;94457.91;;;6.68;43.85
35892;BME280;21993;42.672;23.296;2023-04-07T05:59:32;94462.66;;;6.74;42.96
35892;BME280;21993;42.672;23.296;2023-04-07T06:01:57;94459.06;;;6.64;43.77
35892;BME280;21993;42.672;23.296;2023-04-07T06:04:22;94466.56;;;6.68;43.36
35892;BME280;21993;42.672;23.296;2023-04-07T06:06:48;94459.22;;;6.73;43.44
35892;BME280;21993;42.672;23.296;2023-04-07T06:09:14;94454.22;;;6.70;42.24
35892;BME280;21993;42.672;23.296;2023-04-07T06:11:39;94454.94;;;6.84;43.19
35892;BME280;21993;42.672;23.296;2023-04-07T06:14:05;94458.84;;;7.00;43.33
35892;BME280;21993;42.672;23.296;2023-04-07T06:16:30;94455.63;;;6.97;43.63
35892;BME280;21993;42.672;23.296;2023-04-07T06:18:55;94461.06;;;7.05;42.45
35892;BME280;21993;42.672;23.296;2023-04-07T06:21:21;94454.22;;;7.15;42.20
35892;BME280;21993;42.672;23.296;2023-04-07T06:23:46;94457.88;;;7.13;42.66
35892;BME280;21993;42.672;23.296;2023-04-07T06:26:12;94456.91;;;7.14;42.00
35892;BME280;21993;42.672;23.296;2023-04-07T06:28:38;94464.97;;;7.22;42.74
35892;BME280;21993;42.672;23.296;2023-04-07T06:31:03;94453.94;;;7.18;41.72
35892;BME280;21993;42.672;23.296;2023-04-07T06:33:29;94456.09;;;7.24;41.93
35892;BME280;21993;42.672;23.296;2023-04-07T06:35:55;94456.19;;;7.34;42.15
35892;BME280;21993;42.672;23.296;2023-04-07T06:38:21;94457.53;;;7.60;40.83
35892;BME280;21993;42.672;23.296;2023-04-07T06:40:46;94453.69;;;7.65;41.67
35892;BME280;21993;42.672;23.296;2023-04-07T06:43:11;94464.53;;;7.60;40.20
35892;BME280;21993;42.672;23.296;2023-04-07T06:45:37;94446.38;;;7.58;40.21
35892;BME280;21993;42.672;23.296;2023-04-07T06:48:02;94457.44;;;7.83;41.23
35892;BME280;21993;42.672;23.296;2023-04-07T06:50:28;94458.34;;;7.93;40.77
35892;BME280;21993;42.672;23.296;2023-04-07T06:52:53;94461.84;;;8.03;40.56
35892;BME280;21993;42.672;23.296;2023-04-07T06:55:18;94455.16;;;8.10;40.54
35892;BME280;21993;42.672;23.296;2023-04-07T06:57:44;94459.97;;;8.26;39.42
35892;BME280;21993;42.672;23.296;2023-04-07T07:00:10;94458.88;;;8.29;39.20
35892;BME280;21993;42.672;23.296;2023-04-07T07:02:36;94459.22;;;8.35;38.94
35892;BME280;21993;42.672;23.296;2023-04-07T07:05:01;94469.88;;;8.43;38.97
35892;BME280;21993;42.672;23.296;2023-04-07T07:07:29;94460.66;;;8.49;38.86
35892;BME280;21993;42.672;23.296;2023-04-07T07:09:54;94465.88;;;8.49;38.82
35892;BME280;21993;42.672;23.296;2023-04-07T07:12:20;94461.94;;;8.55;39.33
35892;BME280;21993;42.672;23.296;2023-04-07T07:14:45;94466.56;;;8.72;39.22
35892;BME280;21993;42.672;23.296;2023-04-07T07:17:11;94472.94;;;8.79;38.58
35892;BME280;21993;42.672;23.296;2023-04-07T07:19:37;94474.59;;;8.80;37.94
35892;BME280;21993;42.672;23.296;2023-04-07T07:22:03;94473.41;;;8.84;37.47
35892;BME280;21993;42.672;23.296;2023-04-07T07:24:29;94471.91;;;8.61;38.14
35892;BME280;21993;42.672;23.296;2023-04-07T07:26:58;94472.31;;;8.66;38.41
35892;BME280;21993;42.672;23.296;2023-04-07T07:29:23;94463.81;;;8.73;38.74
35892;BME280;21993;42.672;23.296;2023-04-07T07:31:48;94481.34;;;8.83;38.91
35892;BME280;21993;42.672;23.296;2023-04-07T07:34:14;94485.88;;;8.81;37.88
35892;BME280;21993;42.672;23.296;2023-04-07T07:36:39;94487.16;;;8.86;39.03
35892;BME280;21993;42.672;23.296;2023-04-07T07:39:05;94485.81;;;8.92;38.00
35892;BME280;21993;42.672;23.296;2023-04-07T07:41:30;94486.38;;;8.95;38.08
35892;BME280;21993;42.672;23.296;2023-04-07T07:43:56;94499.97;;;8.89;38.38
35892;BME280;21993;42.672;23.296;2023-04-07T07:46:22;94491.50;;;9.07;38.61
35892;BME280;21993;42.672;23.296;2023-04-07T07:48:50;94488.94;;;9.16;38.63
35892;BME280;21993;42.672;23.296;2023-04-07T07:51:16;94494.91;;;8.97;38.41
35892;BME280;21993;42.672;23.296;2023-04-07T07:53:43;94490.13;;;9.02;37.97
35892;BME280;21993;42.672;23.296;2023-04-07T07:56:08;94497.16;;;9.02;38.51
35892;BME280;21993;42.672;23.296;2023-04-07T07:58:34;94499.69;;;9.13;38.65
35892;BME280;21993;42.672;23.296;2023-04-07T08:01:00;94492.88;;;9.01;37.81
35892;BME280;21993;42.672;23.296;2023-04-07T08:03:25;94496.25;;;9.22;37.09
35892;BME280;21993;42.672;23.296;2023-04-07T08:05:50;94490.72;;;9.16;37.43
35892;BME280;21993;42.672;23.296;2023-04-07T08:08:16;94499.13;;;9.10;37.18
35892;BME280;21993;42.672;23.296;2023-04-07T08:10:41;94496.19;;;9.03;38.09
35892;BME280;21993;42.672;23.296;2023-04-07T08:13:07;94493.63;;;9.13;37.86
35892;BME280;21993;42.672;23.296;2023-04-07T08:15:32;94495.78;;;9.08;38.39
35892;BME280;21993;42.672;23.296;2023-04-07T08:17:58;94492.97;;;9.20;37.69
35892;BME280;21993;42.672;23.296;2023-04-07T08:20:26;94493.56;;;9.34;37.47
35892;BME280;21993;42.672;23.296;2023-04-07T08:22:51;94497.31;;;9.50;37.08
35892;BME280;21993;42.672;23.296;2023-04-07T08:25:17;94488.38;;;9.53;37.80
35892;BME280;21993;42.672;23.296;2023-04-07T08:27:43;94493.75;;;9.61;37.50
35892;BME280;21993;42.672;23.296;2023-04-07T08:30:09;94492.78;;;9.62;37.62
35892;BME280;21993;42.672;23.296;2023-04-07T08:32:39;94497.91;;;9.73;37.11
35892;BME280;21993;42.672;23.296;2023-04-07T08:35:05;94491.16;;;9.80;37.47
35892;BME280;21993;42.672;23.296;2023-04-07T08:37:32;94490.88;;;9.83;36.83
35892;BME280;21993;42.672;23.296;2023-04-07T08:39:58;94495.03;;;9.96;37.40
35892;BME280;21993;42.672;23.296;2023-04-07T08:42:27;94488.69;;;9.98;36.69
35892;BME280;21993;42.672;23.296;2023-04-07T08:45:04;94496.16;;;10.03;37.14
35892;BME280;21993;42.672;23.296;2023-04-07T08:47:31;94494.06;;;9.97;37.17
35892;BME280;21993;42.672;23.296;2023-04-07T08:50:00;94478.59;;;9.74;38.31
35892;BME280;21993;42.672;23.296;2023-04-07T08:52:43;94487.56;;;9.91;37.36
35892;BME280;21993;42.672;23.296;2023-04-07T08:55:08;94490.38;;;10.09;36.41
35892;BME280;21993;42.672;23.296;2023-04-07T08:57:35;94485.38;;;10.15;36.44
35892;BME280;21993;42.672;23.296;2023-04-07T09:00:01;94491.88;;;10.21;36.28
35892;BME280;21993;42.672;23.296;2023-04-07T09:02:33;94490.09;;;10.31;36.15
35892;BME280;21993;42.672;23.296;2023-04-07T09:05:00;94484.16;;;10.39;35.72
35892;BME280;21993;42.672;23.296;2023-04-07T09:07:27;94494.63;;;10.49;35.98
35892;BME280;21993;42.672;23.296;2023-04-07T09:09:54;94494.47;;;10.50;35.72
35892;BME280;21993;42.672;23.296;2023-04-07T09:12:20;94484.84;;;10.41;35.80
35892;BME280;21993;42.672;23.296;2023-04-07T09:14:45;94482.59;;;10.56;35.99
35892;BME280;21993;42.672;23.296;2023-04-07T09:17:11;94484.66;;;10.71;35.48
35892;BME280;21993;42.672;23.296;2023-04-07T09:19:36;94482.44;;;10.77;35.49
35892;BME280;21993;42.672;23.296;2023-04-07T09:22:01;94486.41;;;10.81;35.78
35892;BME280;21993;42.672;23.296;2023-04-07T09:24:28;94487.94;;;10.74;35.39
35892;BME280;21993;42.672;23.296;2023-04-07T09:27:12;94480.56;;;10.96;35.35
35892;BME280;21993;42.672;23.296;2023-04-07T09:29:39;94493.13;;;10.93;35.17
35892;BME280;21993;42.672;23.296;2023-04-07T09:32:06;94483.94;;;10.79;35.06
35892;BME280;21993;42.672;23.296;2023-04-07T09:34:36;94486.94;;;10.94;35.18
35892;BME280;21993;42.672;23.296;2023-04-07T09:37:06;94495.66;;;10.94;35.23
35892;BME280;21993;42.672;23.296;2023-04-07T09:39:47;94492.34;;;10.83;35.43
35892;BME280;21993;42.672;23.296;2023-04-07T09:42:12;94498.44;;;10.74;35.94
35892;BME280;21993;42.672;23.296;2023-04-07T09:44:39;94503.66;;;10.93;35.90
35892;BME280;21993;42.672;23.296;2023-04-07T09:47:05;94494.22;;;11.00;36.09
35892;BME280;21993;42.672;23.296;2023-04-07T09:49:31;94494.56;;;11.24;35.88
35892;BME280;21993;42.672;23.296;2023-04-07T09:52:03;94502.78;;;11.12;35.41
35892;BME280;21993;42.672;23.296;2023-04-07T09:54:36;94502.59;;;11.23;35.68
35892;BME280;21993;42.672;23.296;2023-04-07T09:57:09;94499.16;;;11.13;36.06
35892;BME280;21993;42.672;23.296;2023-04-07T09:59:37;94503.91;;;10.99;36.75
35892;BME280;21993;42.672;23.296;2023-04-07T10:02:04;94505.88;;;10.88;36.90
35892;BME280;21993;42.672;23.296;2023-04-07T10:04:29;94495.97;;;11.19;36.21
35892;BME280;21993;42.672;23.296;2023-04-07T10:06:56;94497.19;;;11.24;35.64
35892;BME280;21993;42.672;23.296;2023-04-07T10:09:22;94496.69;;;11.11;35.78
35892;BME280;21993;42.672;23.296;2023-04-07T10:11:50;94493.09;;;11.12;35.46
35892;BME280;21993;42.672;23.296;2023-04-07T10:14:19;94495.94;;;11.28;35.93
35892;BME280;21993;42.672;23.296;2023-04-07T10:16:46;94487.28;;;11.46;35.50
35892;BME280;21993;42.672;23.296;2023-04-07T10:19:12;94494.06;;;11.66;35.24
35892;BME280;21993;42.672;23.296;2023-04-07T10:21:42;94502.41;;;11.62;34.97
35892;BME280;21993;42.672;23.296;2023-04-07T10:26:57;94491.44;;;11.66;34.69
35892;BME280;21993;42.672;23.296;2023-04-07T10:29:24;94500.25;;;11.47;35.73
35892;BME280;21993;42.672;23.296;2023-04-07T10:31:51;94491.50;;;11.56;34.97
35892;BME280;21993;42.672;23.296;2023-04-07T10:37:16;94503.63;;;11.40;36.14
35892;BME280;21993;42.672;23.296;2023-04-07T10:39:45;94510.88;;;11.55;35.24
35892;BME280;21993;42.672;23.296;2023-04-07T10:45:02;94511.19;;;11.52;35.96
35892;BME280;21993;42.672;23.296;2023-04-07T10:47:27;94521.00;;;11.50;36.77
35892;BME280;21993;42.672;23.296;2023-04-07T10:52:36;94515.56;;;11.62;36.95
35892;BME280;21993;42.672;23.296;2023-04-07T10:55:31;94513.81;;;11.52;37.19
35892;BME280;21993;42.672;23.296;2023-04-07T10:58:23;94514.44;;;11.37;38.11
35892;BME280;21993;42.672;23.296;2023-04-07T11:03:56;94524.84;;;11.28;38.03
35892;BME280;21993;42.672;23.296;2023-04-07T11:06:22;94523.31;;;11.26;38.41
35892;BME280;21993;42.672;23.296;2023-04-07T11:08:48;94517.47;;;11.32;38.07
35892;BME280;21993;42.672;23.296;2023-04-07T11:11:19;94523.56;;;11.33;37.67
35892;BME280;21993;42.672;23.296;2023-04-07T11:13:45;94517.47;;;11.32;37.78
35892;BME280;21993;42.672;23.296;2023-04-07T11:16:13;94511.69;;;11.28;38.39
35892;BME280;21993;42.672;23.296;2023-04-07T11:18:39;94519.91;;;11.43;38.43
35892;BME280;21993;42.672;23.296;2023-04-07T11:21:06;94527.16;;;11.59;38.04
35892;BME280;21993;42.672;23.296;2023-04-07T11:23:42;94521.44;;;11.46;38.33
35892;BME280;21993;42.672;23.296;2023-04-07T11:26:10;94526.53;;;11.47;38.35
35892;BME280;21993;42.672;23.296;2023-04-07T11:28:50;94525.25;;;11.51;38.62
35892;BME280;21993;42.672;23.296;2023-04-07T11:31:23;94520.88;;;11.52;38.00
35892;BME280;21993;42.672;23.296;2023-04-07T11:34:02;94524.38;;;11.33;38.58
35892;BME280;21993;42.672;23.296;2023-04-07T11:36:34;94533.66;;;11.37;38.53
35892;BME280;21993;42.672;23.296;2023-04-07T11:39:00;94536.56;;;11.34;38.99
35892;BME280;21993;42.672;23.296;2023-04-07T11:41:28;94536.84;;;11.31;39.21
35892;BME280;21993;42.672;23.296;2023-04-07T11:44:04;94524.69;;;11.30;39.13
35892;BME280;21993;42.672;23.296;2023-04-07T11:46:30;94526.88;;;11.35;38.76
35892;BME280;21993;42.672;23.296;2023-04-07T11:49:07;94529.78;;;11.32;38.96
35892;BME280;21993;42.672;23.296;2023-04-07T11:51:33;94532.56;;;11.30;39.30
35892;BME280;21993;42.672;23.296;2023-04-07T11:53:58;94528.19;;;11.21;39.90
35892;BME280;21993;42.672;23.296;2023-04-07T11:56:24;94531.91;;;11.28;39.22
35892;BME280;21993;42.672;23.296;2023-04-07T11:58:51;94529.00;;;11.21;39.66
35892;BME280;21993;42.672;23.296;2023-04-07T12:01:17;94527.16;;;11.32;40.10
35892;BME280;21993;42.672;23.296;2023-04-07T12:04:02;94523.19;;;11.27;40.33
35892;BME280;21993;42.672;23.296;2023-04-07T12:06:35;94526.84;;;11.44;40.24
35892;BME280;21993;42.672;23.296;2023-04-07T12:09:06;94520.88;;;11.42;39.74
35892;BME280;21993;42.672;23.296;2023-04-07T12:11:32;94525.78;;;11.37;39.57
35892;BME280;21993;42.672;23.296;2023-04-07T12:13:59;94523.56;;;11.33;39.76
35892;BME280;21993;42.672;23.296;2023-04-07T12:16:25;94519.91;;;11.43;39.41
35892;BME280;21993;42.672;23.296;2023-04-07T12:18:51;94525.81;;;11.55;39.56
35892;BME280;21993;42.672;23.296;2023-04-07T12:21:17;94531.06;;;11.55;39.46
35892;BME280;21993;42.672;23.296;2023-04-07T12:23:44;94524.13;;;11.64;39.75
35892;BME280;21993;42.672;23.296;2023-04-07T12:26:10;94523.22;;;11.73;39.30
35892;BME280;21993;42.672;23.296;2023-04-07T12:28:36;94520.09;;;11.69;38.77
35892;BME280;21993;42.672;23.296;2023-04-07T12:31:02;94528.25;;;11.66;38.71
35892;BME280;21993;42.672;23.296;2023-04-07T12:33:27;94523.88;;;11.57;39.09
35892;BME280;21993;42.672;23.296;2023-04-07T12:35:53;94523.91;;;11.75;39.44
35892;BME280;21993;42.672;23.296;2023-04-07T12:38:19;94517.38;;;11.79;38.73
35892;BME280;21993;42.672;23.296;2023-04-07T12:40:45;94517.38;;;11.79;39.05
35892;BME280;21993;42.672;23.296;2023-04-07T12:43:11;94524.88;;;11.74;39.17
35892;BME280;21993;42.672;23.296;2023-04-07T12:45:36;94524.34;;;11.80;39.02
35892;BME280;21993;42.672;23.296;2023-04-07T12:48:02;94518.09;;;11.81;38.89
35892;BME280;21993;42.672;23.296;2023-04-07T12:50:28;94511.84;;;11.82;39.01
35892;BME280;21993;42.672;23.296;2023-04-07T12:52:54;94524.94;;;11.92;39.13
35892;BME280;21993;42.672;23.296;2023-04-07T12:55:20;94520.22;;;11.95;38.98
35892;BME280;21993;42.672;23.296;2023-04-07T12:57:46;94516.97;;;12.01;38.72
35892;BME280;21993;42.672;23.296;2023-04-07T13:00:12;94527.50;;;12.01;39.34
35892;BME280;21993;42.672;23.296;2023-04-07T13:02:38;94526.91;;;11.90;39.02
35892;BME280;21993;42.672;23.296;2023-04-07T13:05:04;94533.81;;;11.63;38.91
35892;BME280;21993;42.672;23.296;2023-04-07T13:07:30;94521.13;;;11.76;39.11
35892;BME280;21993;42.672;23.296;2023-04-07T13:09:55;94535.84;;;11.69;39.43
35892;BME280;21993;42.672;23.296;2023-04-07T13:12:21;94532.09;;;11.72;39.18
35892;BME280;21993;42.672;23.296;2023-04-07T13:14:47;94535.78;;;11.89;39.20
35892;BME280;21993;42.672;23.296;2023-04-07T13:17:12;94531.50;;;11.88;39.70
35892;BME280;21993;42.672;23.296;2023-04-07T13:19:38;94531.75;;;11.84;39.72
35892;BME280;21993;42.672;23.296;2023-04-07T13:22:10;94539.69;;;11.75;39.37
35892;BME280;21993;42.672;23.296;2023-04-07T13:24:36;94539.69;;;11.75;39.87